Nanticoke, Canada
Current Conditions -  °F | °C
As of 1:00 AM on Wednesday 28 Jan 2015 (Local Time) from CYHM Reporting Station
Clear Clear  
Wind Chill: -8°   Ceiling: Unl
Heat Index:   Visibility: 15mi
Dew Point: -6°   Wind: 6mph
Humidity: 66%   Direction: 260°W
Pressure: 30.15"   Gusts: NA
Location:  42.81°N, 80.07°W
Report Text: CYHM 280600Z 26005KT 15SM SKC M16/M21 A3015 RMK SLP227
Loading
Personal Weather Stations






























Interactive Weather Map New forecast layout! Learn more

10-Day Weather Forecast

Advertisements
Track Severe Weather on mobile